Time;durP1;ratioP1;P1;durP2;ratioP2;P2;SDS_P1;SDS_P2;PMS_P1;PMS_P2;Temp;Humidity;BMP_temperature;BMP_pressure;BME280_temperature;BME280_humidity;BME280_pressure;Samples;Min_cycle;Max_cycle;Signal;HPM_P1;HPM_P2
2022/03/06 00:02:06;;;;;;;27.02;13.50;;;;;;;;;;5050739;28;20022;-83
2022/03/06 00:04:33;;;;;;;24.08;14.05;;;;;;;;;;5044559;28;20029;-84
2022/03/06 00:06:59;;;;;;;24.73;13.88;;;;;;;;;;5044938;28;20526;-84
2022/03/06 00:09:25;;;;;;;26.17;13.50;;;;;;;;;;5045301;28;20029;-82
2022/03/06 00:11:51;;;;;;;22.65;13.70;;;;;;;;;;5044043;28;20283;-84
2022/03/06 00:14:17;;;;;;;24.50;14.45;;;;;;;;;;5060045;28;20407;-83
2022/03/06 00:16:43;;;;;;;27.92;14.55;;;;;;;;;;5058035;28;20037;-84
2022/03/06 00:19:09;;;;;;;27.38;14.93;;;;;;;;;;5041090;28;20033;-84
2022/03/06 00:21:35;;;;;;;25.42;14.27;;;;;;;;;;5042236;28;20021;-85
2022/03/06 00:24:01;;;;;;;30.73;15.73;;;;;;;;;;5047025;28;20037;-85
2022/03/06 00:26:27;;;;;;;29.77;14.50;;;;;;;;;;5047468;28;20114;-84
2022/03/06 00:28:54;;;;;;;28.45;15.40;;;;;;;;;;5046426;28;20033;-85
2022/03/06 00:31:22;;;;;;;26.42;14.90;;;;;;;;;;5058994;28;20051;-84
2022/03/06 00:33:49;;;;;;;31.25;16.33;;;;;;;;;;5050095;28;20029;-85
2022/03/06 00:36:15;;;;;;;32.38;16.15;;;;;;;;;;5045421;28;20021;-84
2022/03/06 00:38:41;;;;;;;29.13;15.68;;;;;;;;;;5044724;28;20036;-85
2022/03/06 00:41:07;;;;;;;30.38;15.95;;;;;;;;;;5047022;28;20025;-85
2022/03/06 00:43:33;;;;;;;28.40;15.98;;;;;;;;;;5050944;28;20030;-84
2022/03/06 00:45:59;;;;;;;28.33;15.52;;;;;;;;;;5044969;28;20073;-84
2022/03/06 00:48:25;;;;;;;28.48;14.70;;;;;;;;;;5053709;28;20557;-86
2022/03/06 00:50:51;;;;;;;28.45;15.23;;;;;;;;;;5067080;28;20043;-86
2022/03/06 00:53:17;;;;;;;28.33;15.93;;;;;;;;;;5046489;28;20025;-85
2022/03/06 00:55:43;;;;;;;28.35;14.77;;;;;;;;;;5046251;28;20049;-85
2022/03/06 00:58:10;;;;;;;31.15;16.45;;;;;;;;;;5044310;28;20030;-84
2022/03/06 01:00:40;;;;;;;28.70;15.65;;;;;;;;;;5036082;28;20421;-83
2022/03/06 01:03:07;;;;;;;30.42;15.88;;;;;;;;;;5056020;28;20029;-84
2022/03/06 01:05:34;;;;;;;27.67;16.05;;;;;;;;;;5057159;28;20093;-84
2022/03/06 01:08:00;;;;;;;30.23;15.93;;;;;;;;;;5056716;28;20028;-83
2022/03/06 01:10:26;;;;;;;31.10;16.38;;;;;;;;;;5055771;28;20124;-83
2022/03/06 01:12:52;;;;;;;29.30;17.48;;;;;;;;;;5047277;28;20368;-84
2022/03/06 01:15:19;;;;;;;27.52;15.13;;;;;;;;;;5061325;28;20092;-84
2022/03/06 01:17:45;;;;;;;30.98;17.35;;;;;;;;;;5062926;28;20033;-86
2022/03/06 01:20:11;;;;;;;31.80;16.85;;;;;;;;;;5058739;28;20081;-83
2022/03/06 01:25:41;;;;;;;33.17;17.55;;;;;;;;;;5042738;28;20020;-84
2022/03/06 01:28:07;;;;;;;31.95;17.00;;;;;;;;;;5049358;28;20033;-86
2022/03/06 01:30:33;;;;;;;30.58;16.63;;;;;;;;;;5041380;28;20026;-84
2022/03/06 01:33:00;;;;;;;28.38;15.93;;;;;;;;;;5040283;28;20446;-83
2022/03/06 01:35:26;;;;;;;28.42;16.13;;;;;;;;;;5043648;28;20029;-85
2022/03/06 01:37:52;;;;;;;30.60;16.42;;;;;;;;;;5058817;28;20048;-84
2022/03/06 01:40:18;;;;;;;31.45;16.33;;;;;;;;;;5058124;28;20021;-86
2022/03/06 01:42:45;;;;;;;34.17;16.90;;;;;;;;;;5041140;28;20037;-85
2022/03/06 01:45:12;;;;;;;35.50;17.67;;;;;;;;;;5039998;28;20017;-84
2022/03/06 01:47:42;;;;;;;31.02;16.55;;;;;;;;;;5046002;28;20033;-85
2022/03/06 01:50:17;;;;;;;31.58;16.65;;;;;;;;;;5055946;28;20520;-83
2022/03/06 01:52:44;;;;;;;30.27;16.60;;;;;;;;;;5042087;28;20445;-83
2022/03/06 01:55:10;;;;;;;29.80;15.07;;;;;;;;;;5044940;28;20053;-83
2022/03/06 01:57:37;;;;;;;31.00;15.88;;;;;;;;;;5045506;28;20049;-83
2022/03/06 02:00:05;;;;;;;29.02;16.27;;;;;;;;;;5045255;28;20017;-84
2022/03/06 02:02:33;;;;;;;29.63;16.88;;;;;;;;;;5059384;28;20123;-85
2022/03/06 02:05:00;;;;;;;29.52;15.18;;;;;;;;;;5050138;28;20482;-85
2022/03/06 02:07:26;;;;;;;31.65;17.77;;;;;;;;;;5059725;28;20029;-84
2022/03/06 02:09:52;;;;;;;30.88;16.08;;;;;;;;;;5059717;28;20033;-83
2022/03/06 02:12:24;;;;;;;33.15;16.35;;;;;;;;;;5055646;28;20033;-86
2022/03/06 02:15:00;;;;;;;30.42;16.98;;;;;;;;;;5056549;28;20506;-85
2022/03/06 02:17:27;;;;;;;31.63;16.33;;;;;;;;;;5049301;28;20093;-85
2022/03/06 02:20:00;;;;;;;27.67;15.93;;;;;;;;;;5038598;28;20048;-86
2022/03/06 02:22:28;;;;;;;26.00;15.02;;;;;;;;;;5039822;28;20014;-86
2022/03/06 02:24:54;;;;;;;32.40;16.58;;;;;;;;;;5044321;28;20388;-86
2022/03/06 02:27:20;;;;;;;32.33;16.95;;;;;;;;;;5056631;28;20033;-86
2022/03/06 02:29:46;;;;;;;31.67;17.20;;;;;;;;;;5056461;28;20029;-86
2022/03/06 02:32:14;;;;;;;31.40;17.48;;;;;;;;;;5043530;28;20383;-86
2022/03/06 02:34:41;;;;;;;31.05;16.83;;;;;;;;;;5045199;28;20507;-86
2022/03/06 02:37:07;;;;;;;32.03;16.90;;;;;;;;;;5039360;28;20030;-86
2022/03/06 02:39:34;;;;;;;31.05;16.10;;;;;;;;;;5041536;28;20013;-85
2022/03/06 02:42:01;;;;;;;31.70;17.02;;;;;;;;;;5042336;28;20071;-85
2022/03/06 02:44:28;;;;;;;33.70;17.10;;;;;;;;;;5043664;28;20052;-85
2022/03/06 02:55:49;;;;;;;27.08;14.93;;;;;;;;;;4717100;28;21881;-88
2022/03/06 02:58:15;;;;;;;34.60;17.42;;;;;;;;;;5045400;28;20083;-86
2022/03/06 03:00:41;;;;;;;30.45;16.80;;;;;;;;;;5046518;28;20061;-85
2022/03/06 03:03:07;;;;;;;27.15;15.52;;;;;;;;;;5061216;28;20030;-85
2022/03/06 03:05:33;;;;;;;27.30;15.52;;;;;;;;;;5061218;28;20015;-86
2022/03/06 03:07:59;;;;;;;32.90;15.93;;;;;;;;;;5047841;28;20021;-86
2022/03/06 03:10:25;;;;;;;30.17;16.25;;;;;;;;;;5053911;28;20151;-86
2022/03/06 03:12:52;;;;;;;29.55;16.48;;;;;;;;;;5055155;28;20090;-86
2022/03/06 03:15:18;;;;;;;30.48;16.45;;;;;;;;;;5040346;28;20029;-85
2022/03/06 03:20:50;;;;;;;29.60;15.73;;;;;;;;;;5042300;28;20097;-86
2022/03/06 03:23:16;;;;;;;30.42;16.65;;;;;;;;;;5047700;28;20426;-86
2022/03/06 03:25:42;;;;;;;29.75;17.40;;;;;;;;;;5042724;28;20057;-85
2022/03/06 03:28:08;;;;;;;31.95;18.05;;;;;;;;;;5051277;28;20028;-85
2022/03/06 03:30:34;;;;;;;28.00;15.50;;;;;;;;;;5041891;28;20025;-86
2022/03/06 03:33:00;;;;;;;33.13;16.58;;;;;;;;;;5046348;28;20035;-86
2022/03/06 03:35:26;;;;;;;30.63;16.10;;;;;;;;;;5043397;28;20033;-86
2022/03/06 03:37:52;;;;;;;29.88;17.70;;;;;;;;;;5050555;28;20656;-86
2022/03/06 03:40:18;;;;;;;29.38;16.67;;;;;;;;;;5040125;28;20025;-85
2022/03/06 03:42:44;;;;;;;28.23;15.55;;;;;;;;;;5046425;28;20071;-86
2022/03/06 03:45:10;;;;;;;26.85;16.63;;;;;;;;;;5058125;28;20070;-86
2022/03/06 03:47:36;;;;;;;31.00;17.00;;;;;;;;;;5058138;28;20433;-87
2022/03/06 03:50:04;;;;;;;28.98;16.55;;;;;;;;;;5045682;28;20037;-85
2022/03/06 03:52:30;;;;;;;33.40;17.40;;;;;;;;;;5045611;28;20057;-86
2022/03/06 03:54:56;;;;;;;29.45;16.25;;;;;;;;;;5054486;28;20048;-84
2022/03/06 03:57:24;;;;;;;33.40;17.65;;;;;;;;;;5046765;28;20041;-85
2022/03/06 03:59:51;;;;;;;30.50;15.52;;;;;;;;;;5037451;28;20036;-84
2022/03/06 04:02:17;;;;;;;24.13;15.02;;;;;;;;;;5041441;28;20029;-84
2022/03/06 04:04:43;;;;;;;32.03;17.20;;;;;;;;;;5037796;28;20025;-86
2022/03/06 04:07:09;;;;;;;29.30;14.65;;;;;;;;;;5037984;28;20162;-83
2022/03/06 04:09:35;;;;;;;28.42;15.63;;;;;;;;;;5037668;28;20495;-83
2022/03/06 04:12:01;;;;;;;26.48;15.52;;;;;;;;;;5036560;28;20025;-85
2022/03/06 04:14:27;;;;;;;28.02;16.38;;;;;;;;;;5041780;28;20308;-85
2022/03/06 04:16:53;;;;;;;25.45;14.60;;;;;;;;;;5038713;28;20134;-86
2022/03/06 04:19:19;;;;;;;28.25;15.77;;;;;;;;;;5041935;28;20100;-83
2022/03/06 04:21:45;;;;;;;27.38;14.73;;;;;;;;;;5045404;28;20045;-85
2022/03/06 04:24:11;;;;;;;25.77;15.20;;;;;;;;;;5041045;28;20104;-86
2022/03/06 04:26:40;;;;;;;28.27;15.57;;;;;;;;;;5045163;28;20499;-86
2022/03/06 04:29:06;;;;;;;23.85;14.75;;;;;;;;;;5060259;28;20080;-84
2022/03/06 04:31:32;;;;;;;32.22;15.63;;;;;;;;;;5056674;28;20043;-86
2022/03/06 04:33:58;;;;;;;25.80;14.00;;;;;;;;;;5046414;28;20486;-86
2022/03/06 04:36:25;;;;;;;27.10;15.30;;;;;;;;;;5058992;28;20486;-84
2022/03/06 04:38:51;;;;;;;24.85;15.07;;;;;;;;;;5056442;28;20017;-84
2022/03/06 04:41:17;;;;;;;27.98;15.00;;;;;;;;;;5053685;28;20026;-84
2022/03/06 04:43:43;;;;;;;25.27;14.10;;;;;;;;;;5046509;28;20091;-84
2022/03/06 04:46:09;;;;;;;23.65;14.82;;;;;;;;;;5041822;28;20080;-85
2022/03/06 04:48:35;;;;;;;24.90;14.35;;;;;;;;;;5043163;28;20124;-85
2022/03/06 04:51:01;;;;;;;25.30;15.57;;;;;;;;;;5046978;28;20025;-82
2022/03/06 04:53:28;;;;;;;27.92;16.02;;;;;;;;;;5051507;28;20499;-84
2022/03/06 04:55:54;;;;;;;27.23;15.43;;;;;;;;;;5043705;28;20022;-84
2022/03/06 04:58:20;;;;;;;26.10;16.15;;;;;;;;;;5045009;28;20049;-85
2022/03/06 05:00:48;;;;;;;23.25;14.35;;;;;;;;;;5050947;28;20025;-85
2022/03/06 05:03:14;;;;;;;28.00;15.07;;;;;;;;;;5056275;28;20036;-85
2022/03/06 05:05:40;;;;;;;28.58;15.82;;;;;;;;;;5061769;28;20119;-85
2022/03/06 05:08:06;;;;;;;25.77;14.45;;;;;;;;;;5060235;28;20060;-83
2022/03/06 05:10:32;;;;;;;25.48;14.48;;;;;;;;;;5051034;28;20097;-85
2022/03/06 05:12:58;;;;;;;26.88;15.00;;;;;;;;;;5058808;28;20052;-85
2022/03/06 05:15:24;;;;;;;25.15;14.68;;;;;;;;;;5038808;28;20079;-84
2022/03/06 05:17:50;;;;;;;26.63;14.88;;;;;;;;;;5049503;28;20057;-84
2022/03/06 05:20:16;;;;;;;28.08;14.73;;;;;;;;;;5053189;28;20032;-85
2022/03/06 05:22:43;;;;;;;22.98;14.35;;;;;;;;;;5046748;28;20036;-84
2022/03/06 05:25:09;;;;;;;24.15;14.63;;;;;;;;;;5050603;28;20029;-85
2022/03/06 05:27:36;;;;;;;25.08;14.57;;;;;;;;;;5055592;28;20036;-85
2022/03/06 05:30:03;;;;;;;26.52;15.32;;;;;;;;;;5056877;28;20021;-84
2022/03/06 05:32:29;;;;;;;25.30;13.55;;;;;;;;;;5054150;28;20030;-83
2022/03/06 05:34:55;;;;;;;23.27;13.98;;;;;;;;;;5054320;28;20040;-84
2022/03/06 05:37:21;;;;;;;24.63;14.32;;;;;;;;;;5052506;28;20088;-85
2022/03/06 05:39:47;;;;;;;24.10;14.40;;;;;;;;;;5042102;28;20439;-86
2022/03/06 05:42:14;;;;;;;25.33;15.20;;;;;;;;;;5051947;28;20163;-86
2022/03/06 05:44:41;;;;;;;28.30;13.82;;;;;;;;;;5053241;28;20017;-86
2022/03/06 05:47:07;;;;;;;26.70;14.82;;;;;;;;;;5045160;28;20032;-84
2022/03/06 05:49:33;;;;;;;23.45;13.30;;;;;;;;;;5057330;28;20067;-84
2022/03/06 05:51:59;;;;;;;25.13;14.13;;;;;;;;;;5041604;28;20073;-85
2022/03/06 05:54:25;;;;;;;25.90;14.55;;;;;;;;;;5048772;28;20029;-85
2022/03/06 05:56:51;;;;;;;24.30;14.07;;;;;;;;;;5039408;28;20127;-84
2022/03/06 05:59:17;;;;;;;27.02;15.88;;;;;;;;;;5044193;28;20018;-85
2022/03/06 06:01:43;;;;;;;31.25;15.48;;;;;;;;;;5047046;28;20025;-84
2022/03/06 06:04:09;;;;;;;27.73;15.15;;;;;;;;;;5054415;28;20012;-85
2022/03/06 06:06:35;;;;;;;27.15;15.52;;;;;;;;;;5060087;28;20541;-84
2022/03/06 06:09:01;;;;;;;26.30;15.52;;;;;;;;;;5039610;28;20025;-85
2022/03/06 06:11:27;;;;;;;27.88;15.15;;;;;;;;;;5041926;28;20018;-82
2022/03/06 06:13:53;;;;;;;26.25;15.02;;;;;;;;;;5046785;28;20359;-83
2022/03/06 06:16:19;;;;;;;27.75;15.45;;;;;;;;;;5040987;28;20040;-83
2022/03/06 06:18:45;;;;;;;24.65;15.40;;;;;;;;;;5043502;28;20071;-83
2022/03/06 06:21:11;;;;;;;25.92;14.80;;;;;;;;;;5043381;28;20024;-81
2022/03/06 06:23:38;;;;;;;29.23;14.70;;;;;;;;;;5069636;28;20024;-79
2022/03/06 06:26:04;;;;;;;26.92;15.80;;;;;;;;;;5048814;28;20030;-86
2022/03/06 06:28:30;;;;;;;25.83;15.07;;;;;;;;;;5036789;28;20054;-86
2022/03/06 06:30:56;;;;;;;25.58;14.77;;;;;;;;;;5040330;28;20503;-84
2022/03/06 06:33:22;;;;;;;24.90;14.95;;;;;;;;;;5050361;28;20040;-85
2022/03/06 06:35:48;;;;;;;28.17;16.38;;;;;;;;;;5051359;28;20121;-85
2022/03/06 06:38:14;;;;;;;24.70;14.48;;;;;;;;;;5037688;28;20018;-84
2022/03/06 06:40:40;;;;;;;26.58;15.30;;;;;;;;;;5056001;28;20445;-85
2022/03/06 06:43:06;;;;;;;26.77;15.07;;;;;;;;;;5044095;28;20124;-83
2022/03/06 06:45:32;;;;;;;24.17;14.82;;;;;;;;;;5041677;28;20036;-84
2022/03/06 06:47:58;;;;;;;27.95;15.27;;;;;;;;;;5041675;28;20021;-86
2022/03/06 06:50:24;;;;;;;29.98;16.45;;;;;;;;;;5043170;28;20063;-86
2022/03/06 06:52:50;;;;;;;27.95;15.88;;;;;;;;;;5049779;28;20044;-83
2022/03/06 06:55:16;;;;;;;28.25;16.08;;;;;;;;;;5037657;28;20025;-82
2022/03/06 06:57:42;;;;;;;29.85;16.80;;;;;;;;;;5046411;28;20122;-81
2022/03/06 07:00:08;;;;;;;31.10;17.05;;;;;;;;;;5046285;28;20025;-82
2022/03/06 07:02:34;;;;;;;30.02;16.77;;;;;;;;;;5047684;28;20029;-83
2022/03/06 07:05:00;;;;;;;30.63;16.58;;;;;;;;;;5047237;28;20013;-84
2022/03/06 07:07:26;;;;;;;27.00;15.27;;;;;;;;;;5045735;28;20060;-82
2022/03/06 07:09:52;;;;;;;29.00;16.52;;;;;;;;;;5047917;28;20037;-84
2022/03/06 07:12:18;;;;;;;27.67;15.20;;;;;;;;;;5037971;28;20285;-83
2022/03/06 07:14:44;;;;;;;27.33;15.98;;;;;;;;;;5044713;28;20029;-82
2022/03/06 07:17:10;;;;;;;28.25;16.05;;;;;;;;;;5055461;28;20255;-85
2022/03/06 07:19:36;;;;;;;26.52;16.10;;;;;;;;;;5048400;28;20033;-84
2022/03/06 07:22:02;;;;;;;29.00;17.70;;;;;;;;;;5037388;28;20399;-83
2022/03/06 07:24:29;;;;;;;30.55;17.20;;;;;;;;;;5034659;28;20053;-84
2022/03/06 07:26:55;;;;;;;30.80;17.83;;;;;;;;;;5043067;28;20034;-83
2022/03/06 07:29:21;;;;;;;29.90;17.63;;;;;;;;;;5036356;28;20054;-83
2022/03/06 07:31:46;;;;;;;27.35;16.38;;;;;;;;;;5040305;28;20039;-83
2022/03/06 07:34:13;;;;;;;30.73;17.17;;;;;;;;;;5050618;28;20447;-83
2022/03/06 07:36:38;;;;;;;28.65;16.63;;;;;;;;;;5049953;28;20075;-84
2022/03/06 07:39:05;;;;;;;30.58;17.60;;;;;;;;;;5047363;28;20025;-84
2022/03/06 07:41:31;;;;;;;32.03;18.15;;;;;;;;;;5048176;28;20021;-84
2022/03/06 07:43:57;;;;;;;28.48;17.05;;;;;;;;;;5035987;28;20129;-84
2022/03/06 07:46:23;;;;;;;28.27;17.40;;;;;;;;;;5038033;28;20051;-84
2022/03/06 07:48:49;;;;;;;33.83;18.30;;;;;;;;;;5056030;28;20029;-84
2022/03/06 07:51:15;;;;;;;29.85;17.10;;;;;;;;;;5053082;28;20037;-84
2022/03/06 07:53:41;;;;;;;29.13;17.73;;;;;;;;;;5039824;28;20021;-84
2022/03/06 07:56:07;;;;;;;31.45;16.80;;;;;;;;;;5036299;28;20028;-84
2022/03/06 07:58:33;;;;;;;27.75;17.48;;;;;;;;;;5045165;28;20063;-84
2022/03/06 08:00:59;;;;;;;30.63;16.60;;;;;;;;;;5037521;28;20026;-82
2022/03/06 08:03:25;;;;;;;31.35;18.00;;;;;;;;;;5044977;28;20438;-84
2022/03/06 08:05:51;;;;;;;28.45;15.77;;;;;;;;;;5041610;28;20393;-84
2022/03/06 08:08:17;;;;;;;28.02;17.08;;;;;;;;;;5045668;28;20035;-85
2022/03/06 08:10:43;;;;;;;26.27;15.13;;;;;;;;;;5049686;28;20211;-83
2022/03/06 08:13:09;;;;;;;29.85;16.23;;;;;;;;;;5036128;28;20099;-84
2022/03/06 08:15:36;;;;;;;30.30;16.55;;;;;;;;;;5034455;28;20194;-85
2022/03/06 08:18:02;;;;;;;28.77;16.63;;;;;;;;;;5034858;28;20077;-85
2022/03/06 08:20:28;;;;;;;24.77;14.80;;;;;;;;;;5038736;28;20021;-85
2022/03/06 08:22:54;;;;;;;27.50;15.20;;;;;;;;;;5037212;28;20452;-85
2022/03/06 08:25:20;;;;;;;27.42;15.63;;;;;;;;;;5055471;28;20021;-85
2022/03/06 08:27:46;;;;;;;35.28;20.38;;;;;;;;;;5036406;28;20083;-85
2022/03/06 08:30:13;;;;;;;30.60;17.90;;;;;;;;;;5037129;28;20033;-85
2022/03/06 08:32:39;;;;;;;47.83;23.95;;;;;;;;;;5043507;28;20029;-85
2022/03/06 08:35:06;;;;;;;33.83;18.02;;;;;;;;;;5040065;28;20044;-86
2022/03/06 08:37:32;;;;;;;51.13;26.98;;;;;;;;;;5034988;28;20021;-85
2022/03/06 08:39:58;;;;;;;29.63;16.73;;;;;;;;;;5041538;28;20025;-85
2022/03/06 08:42:24;;;;;;;22.83;13.02;;;;;;;;;;5045209;28;20083;-85
2022/03/06 08:44:50;;;;;;;47.97;24.70;;;;;;;;;;5040600;28;20475;-85
2022/03/06 08:47:16;;;;;;;25.13;14.00;;;;;;;;;;5037643;28;20029;-86
2022/03/06 08:49:42;;;;;;;22.65;13.15;;;;;;;;;;5048941;28;20033;-85
2022/03/06 08:52:10;;;;;;;26.67;15.32;;;;;;;;;;5038480;28;20025;-85
2022/03/06 08:54:36;;;;;;;27.25;16.15;;;;;;;;;;5049631;28;20198;-84
2022/03/06 08:57:03;;;;;;;25.13;14.82;;;;;;;;;;5042835;28;20065;-84
2022/03/06 08:59:29;;;;;;;29.83;16.85;;;;;;;;;;5037927;28;20021;-83
2022/03/06 09:01:58;;;;;;;25.70;15.13;;;;;;;;;;5049331;28;20030;-85
2022/03/06 09:04:24;;;;;;;17.58;11.35;;;;;;;;;;5039898;28;20100;-83
2022/03/06 09:06:53;;;;;;;16.23;10.15;;;;;;;;;;5045694;28;20036;-84
2022/03/06 09:09:19;;;;;;;19.05;11.60;;;;;;;;;;5043319;28;20115;-85
2022/03/06 09:11:45;;;;;;;22.60;13.80;;;;;;;;;;5039806;28;20384;-85
2022/03/06 09:14:11;;;;;;;23.73;13.52;;;;;;;;;;5041375;28;20033;-85
2022/03/06 09:16:38;;;;;;;21.00;12.70;;;;;;;;;;5044719;28;20055;-85
2022/03/06 09:19:04;;;;;;;20.23;12.38;;;;;;;;;;5040336;28;20029;-85
2022/03/06 09:21:30;;;;;;;23.00;13.50;;;;;;;;;;5046064;28;20483;-84
2022/03/06 09:23:56;;;;;;;21.40;13.38;;;;;;;;;;5041643;28;20021;-85
2022/03/06 09:26:22;;;;;;;22.15;14.02;;;;;;;;;;5045440;28;20071;-84
2022/03/06 09:28:48;;;;;;;19.20;11.90;;;;;;;;;;5048693;28;20035;-85
2022/03/06 09:31:15;;;;;;;17.55;11.05;;;;;;;;;;5045998;28;20041;-84
2022/03/06 09:33:41;;;;;;;20.58;12.50;;;;;;;;;;5058829;28;20116;-84
2022/03/06 09:36:07;;;;;;;24.13;13.55;;;;;;;;;;5071994;28;20041;-84
2022/03/06 09:38:33;;;;;;;20.38;12.30;;;;;;;;;;5050752;28;20534;-84
2022/03/06 09:41:01;;;;;;;20.83;12.93;;;;;;;;;;5035432;28;20041;-85
2022/03/06 09:43:27;;;;;;;23.13;13.40;;;;;;;;;;5038002;28;20384;-85
2022/03/06 09:45:58;;;;;;;18.70;11.98;;;;;;;;;;5037653;28;20022;-84
2022/03/06 09:48:24;;;;;;;18.13;11.10;;;;;;;;;;5036273;28;20120;-82
2022/03/06 09:50:50;;;;;;;19.90;11.65;;;;;;;;;;5037128;28;20049;-85
2022/03/06 09:53:16;;;;;;;22.15;13.80;;;;;;;;;;5035044;28;20017;-85
2022/03/06 09:55:42;;;;;;;18.88;11.57;;;;;;;;;;5034034;28;20506;-84
2022/03/06 09:58:08;;;;;;;20.17;12.38;;;;;;;;;;5046501;28;20042;-85
2022/03/06 10:00:35;;;;;;;21.65;13.02;;;;;;;;;;5047990;28;20395;-83
2022/03/06 10:03:02;;;;;;;20.80;10.85;;;;;;;;;;5055613;28;20053;-85
2022/03/06 10:05:32;;;;;;;18.05;11.50;;;;;;;;;;5044885;28;20021;-83
2022/03/06 10:08:17;;;;;;;20.75;12.45;;;;;;;;;;5057754;28;20086;-84
2022/03/06 10:10:43;;;;;;;20.02;11.48;;;;;;;;;;5053385;28;20033;-84
2022/03/06 10:13:18;;;;;;;21.17;12.60;;;;;;;;;;5059618;28;20034;-84
2022/03/06 10:16:00;;;;;;;19.80;11.45;;;;;;;;;;5067297;28;20036;-83
2022/03/06 10:18:26;;;;;;;17.23;11.45;;;;;;;;;;5061867;28;20033;-83
2022/03/06 10:20:52;;;;;;;20.23;12.05;;;;;;;;;;5067098;28;20106;-83
2022/03/06 10:23:27;;;;;;;17.38;10.98;;;;;;;;;;5049108;28;20029;-85
2022/03/06 10:26:01;;;;;;;19.35;11.82;;;;;;;;;;5047038;28;20048;-83
2022/03/06 10:28:27;;;;;;;17.20;10.00;;;;;;;;;;5068652;28;20036;-81
2022/03/06 10:30:53;;;;;;;18.20;11.45;;;;;;;;;;5063624;28;20029;-83
2022/03/06 10:33:20;;;;;;;20.20;11.73;;;;;;;;;;5064964;28;20452;-82
2022/03/06 10:35:47;;;;;;;18.95;11.65;;;;;;;;;;5067655;28;20022;-83
2022/03/06 10:38:21;;;;;;;17.95;10.65;;;;;;;;;;5055926;28;20029;-83
2022/03/06 10:40:47;;;;;;;19.58;11.65;;;;;;;;;;5047149;28;20021;-83
2022/03/06 10:43:21;;;;;;;18.73;11.57;;;;;;;;;;5043932;28;20056;-84
2022/03/06 10:45:47;;;;;;;20.95;11.60;;;;;;;;;;5048454;28;20037;-82
2022/03/06 10:48:14;;;;;;;18.80;11.15;;;;;;;;;;5066411;28;20025;-82
2022/03/06 10:50:40;;;;;;;19.30;11.50;;;;;;;;;;5056646;28;20060;-85
2022/03/06 10:53:19;;;;;;;18.70;11.45;;;;;;;;;;5061100;28;20058;-84
2022/03/06 10:55:45;;;;;;;19.65;11.50;;;;;;;;;;5065944;28;20112;-83
2022/03/06 10:58:12;;;;;;;17.60;11.35;;;;;;;;;;5065237;28;20045;-82
2022/03/06 11:00:38;;;;;;;17.77;10.88;;;;;;;;;;5050195;28;20030;-84
2022/03/06 11:03:06;;;;;;;18.13;11.63;;;;;;;;;;5055663;28;20022;-85
2022/03/06 11:05:33;;;;;;;18.73;11.23;;;;;;;;;;5048222;28;20029;-84
2022/03/06 11:07:59;;;;;;;19.33;13.32;;;;;;;;;;5063382;28;20045;-83
2022/03/06 11:10:25;;;;;;;18.10;12.05;;;;;;;;;;5065643;28;20053;-85
2022/03/06 11:12:52;;;;;;;19.63;11.60;;;;;;;;;;5057347;28;20033;-84
2022/03/06 11:15:18;;;;;;;18.05;11.50;;;;;;;;;;5048212;28;20029;-83
2022/03/06 11:17:45;;;;;;;19.20;10.90;;;;;;;;;;5048829;28;20029;-84
2022/03/06 11:20:11;;;;;;;16.33;11.20;;;;;;;;;;5054255;28;20028;-85
2022/03/06 11:22:50;;;;;;;18.85;10.75;;;;;;;;;;5057137;28;20059;-83
2022/03/06 11:25:17;;;;;;;18.38;10.55;;;;;;;;;;5042453;28;20021;-83
2022/03/06 11:27:45;;;;;;;16.60;9.55;;;;;;;;;;5042981;28;20376;-84
2022/03/06 11:30:20;;;;;;;16.83;9.88;;;;;;;;;;5062552;28;20499;-84
2022/03/06 11:33:07;;;;;;;16.08;9.82;;;;;;;;;;5062549;28;20032;-84
2022/03/06 11:35:37;;;;;;;16.48;10.38;;;;;;;;;;5052978;28;20072;-84
2022/03/06 11:38:04;;;;;;;18.38;9.65;;;;;;;;;;5045371;28;20033;-85
2022/03/06 11:40:49;;;;;;;16.83;10.55;;;;;;;;;;5064565;28;20031;-85
2022/03/06 11:43:24;;;;;;;16.20;10.38;;;;;;;;;;5044559;28;20626;-85
2022/03/06 11:45:54;;;;;;;15.38;9.93;;;;;;;;;;5041442;28;20566;-85
2022/03/06 11:48:23;;;;;;;16.17;10.07;;;;;;;;;;5044146;28;20110;-85
2022/03/06 11:51:08;;;;;;;17.10;9.60;;;;;;;;;;5060814;28;20092;-84
2022/03/06 11:53:46;;;;;;;14.27;9.10;;;;;;;;;;5057449;28;20115;-83
2022/03/06 11:56:31;;;;;;;16.23;9.65;;;;;;;;;;5058543;28;20229;-83
2022/03/06 11:58:58;;;;;;;14.70;9.52;;;;;;;;;;5053091;28;20041;-85
2022/03/06 12:01:27;;;;;;;18.02;10.68;;;;;;;;;;5052457;28;20093;-83
2022/03/06 12:04:03;;;;;;;17.00;10.23;;;;;;;;;;5056691;28;20056;-84
2022/03/06 12:06:29;;;;;;;17.55;11.45;;;;;;;;;;5056872;28;20031;-84
2022/03/06 12:08:55;;;;;;;16.30;10.20;;;;;;;;;;5040500;28;20088;-84
2022/03/06 12:11:21;;;;;;;16.70;10.80;;;;;;;;;;5052563;28;20051;-83
2022/03/06 12:13:51;;;;;;;16.80;10.48;;;;;;;;;;5066656;28;20025;-85
2022/03/06 12:16:18;;;;;;;14.88;9.00;;;;;;;;;;5063436;28;20022;-83
2022/03/06 12:19:01;;;;;;;15.05;10.27;;;;;;;;;;5050681;28;20079;-83
2022/03/06 12:21:36;;;;;;;16.60;11.15;;;;;;;;;;5050552;28;20038;-83
2022/03/06 12:24:10;;;;;;;16.83;10.25;;;;;;;;;;5052089;28;20026;-83
2022/03/06 12:26:42;;;;;;;17.02;10.60;;;;;;;;;;5061223;28;20028;-85
2022/03/06 12:29:08;;;;;;;17.13;10.32;;;;;;;;;;5043603;28;20032;-81
2022/03/06 12:31:37;;;;;;;18.65;11.00;;;;;;;;;;5043785;28;20041;-85
2022/03/06 12:34:23;;;;;;;18.17;10.75;;;;;;;;;;5052411;28;20025;-86
2022/03/06 12:36:56;;;;;;;15.52;9.93;;;;;;;;;;5062568;28;20018;-85
2022/03/06 12:39:21;;;;;;;;;;;;;;;;;;5074448;28;20025;-84
2022/03/06 12:41:47;;;;;;;19.95;12.45;;;;;;;;;;5073702;28;19927;-84
2022/03/06 12:44:23;;;;;;;15.82;10.35;;;;;;;;;;5057437;28;20033;-83
2022/03/06 12:46:50;;;;;;;15.20;9.52;;;;;;;;;;5074886;28;20047;-83
2022/03/06 12:49:16;;;;;;;14.88;10.23;;;;;;;;;;5048875;28;20080;-84
2022/03/06 12:51:42;;;;;;;15.23;9.68;;;;;;;;;;5044230;28;20029;-85
2022/03/06 12:54:19;;;;;;;18.20;10.18;;;;;;;;;;5041930;28;20037;-86
2022/03/06 12:56:46;;;;;;;15.40;9.88;;;;;;;;;;5039506;28;20056;-84
2022/03/06 12:59:15;;;;;;;16.70;9.80;;;;;;;;;;5068940;28;20029;-85
2022/03/06 13:01:42;;;;;;;16.15;9.82;;;;;;;;;;5054708;28;20045;-85
2022/03/06 13:04:08;;;;;;;16.17;9.70;;;;;;;;;;5052076;28;20029;-85
2022/03/06 13:06:34;;;;;;;17.55;10.55;;;;;;;;;;5040164;28;20043;-84
2022/03/06 13:09:01;;;;;;;18.67;12.07;;;;;;;;;;5038418;28;20033;-84
2022/03/06 13:11:27;;;;;;;19.13;12.05;;;;;;;;;;5043118;28;20056;-85
2022/03/06 13:14:04;;;;;;;21.30;13.18;;;;;;;;;;5047674;28;20036;-86
2022/03/06 13:16:30;;;;;;;20.55;12.07;;;;;;;;;;5045202;28;20021;-85
2022/03/06 13:19:05;;;;;;;18.90;10.98;;;;;;;;;;5058323;28;20017;-85
2022/03/06 13:21:31;;;;;;;19.55;11.60;;;;;;;;;;5043215;28;20052;-85
2022/03/06 13:24:03;;;;;;;20.90;12.38;;;;;;;;;;5036033;28;20435;-85
2022/03/06 13:26:29;;;;;;;21.73;13.10;;;;;;;;;;5044583;28;20095;-84
2022/03/06 13:28:56;;;;;;;22.73;13.60;;;;;;;;;;5050699;28;20398;-84
2022/03/06 13:31:22;;;;;;;20.20;12.38;;;;;;;;;;5042993;28;20770;-85
2022/03/06 13:34:04;;;;;;;19.33;11.70;;;;;;;;;;5052075;28;20021;-84
2022/03/06 13:36:31;;;;;;;18.35;11.88;;;;;;;;;;5048050;28;20021;-85
2022/03/06 13:39:00;;;;;;;20.52;12.10;;;;;;;;;;5052541;28;20021;-84
2022/03/06 13:41:26;;;;;;;20.30;11.93;;;;;;;;;;5056051;28;20471;-86
2022/03/06 13:43:52;;;;;;;20.58;12.95;;;;;;;;;;5051014;28;20029;-84
2022/03/06 13:46:20;;;;;;;20.42;12.23;;;;;;;;;;5051660;28;20558;-85
2022/03/06 13:48:47;;;;;;;24.85;12.60;;;;;;;;;;5056633;28;20380;-85
2022/03/06 13:51:20;;;;;;;24.27;13.63;;;;;;;;;;5054072;28;20056;-86
2022/03/06 13:53:46;;;;;;;;;;;;;;;;;;5039992;28;20127;-85
2022/03/06 13:56:12;;;;;;;18.48;11.73;;;;;;;;;;5045470;28;19954;-86
2022/03/06 13:58:39;;;;;;;20.23;12.25;;;;;;;;;;5058806;28;20422;-84
2022/03/06 14:01:06;;;;;;;20.55;12.15;;;;;;;;;;5057168;28;20029;-85
2022/03/06 14:03:32;;;;;;;19.58;12.25;;;;;;;;;;5044153;28;20468;-82
2022/03/06 14:05:59;;;;;;;20.52;11.48;;;;;;;;;;5042708;28;20088;-85
2022/03/06 14:08:26;;;;;;;19.55;12.10;;;;;;;;;;5053746;28;20087;-85
2022/03/06 14:11:03;;;;;;;20.38;11.63;;;;;;;;;;5049646;28;20055;-86
2022/03/06 14:13:29;;;;;;;21.58;12.00;;;;;;;;;;5040896;28;20029;-85
2022/03/06 14:15:55;;;;;;;18.70;12.18;;;;;;;;;;5039842;28;20057;-86
2022/03/06 14:18:32;;;;;;;20.52;12.20;;;;;;;;;;5040437;28;20025;-84
2022/03/06 14:20:58;;;;;;;21.58;12.57;;;;;;;;;;5047017;28;20032;-84
2022/03/06 14:23:24;;;;;;;19.67;11.75;;;;;;;;;;5042390;28;20025;-85
2022/03/06 14:25:50;;;;;;;22.20;12.68;;;;;;;;;;5049967;28;20025;-85
2022/03/06 14:28:18;;;;;;;22.55;13.85;;;;;;;;;;5054661;28;20033;-84
2022/03/06 14:30:44;;;;;;;23.27;14.52;;;;;;;;;;5045550;28;20079;-83
2022/03/06 14:33:10;;;;;;;21.67;13.80;;;;;;;;;;5046175;28;20051;-84
2022/03/06 14:35:37;;;;;;;24.60;14.18;;;;;;;;;;5041480;28;20018;-85